Terminal Aerodrome Forecast
Issued by NWS

Home | Current Version | Previous Version | Graphics & Text | Print | Product List | Glossary On
Versions: 1 2 3 4 5 6 7 8 9 10 11 12 13 14 15 16 17 18 19 20 21 22 23 24 25 26 27 28 29 30 31 32 33 34 35 36 37 38 39 40 41 42 43 44 45 46 47 48 49 50
649
FTUS43 KLOT 251726
TAFGYY
TAF
KGYY 251726Z 2518/2618 28014G23KT P6SM -SN BKN025 OVC035
     FM260000 29013G19KT P6SM BKN035
     FM260400 27008KT P6SM SCT150
     FM261000 21007KT P6SM BKN090
     FM261400 20016G24KT P6SM BKN060=

USA.gov is the U.S. government's official web portal to all federal, state and local government web resources and services.